sensor_id;sensor_type;location;lat;lon;timestamp;pressure;altitude;pressure_sealevel;temperature;humidity
6389;BME280;3227;42.654;23.360;2024-02-14T00:00:03;94133.75;;;8.00;83.98
6389;BME280;3227;42.654;23.360;2024-02-14T00:02:35;94138.88;;;8.03;84.25
6389;BME280;3227;42.654;23.360;2024-02-14T00:05:02;94045.19;;;7.53;83.76
6389;BME280;3227;42.654;23.360;2024-02-14T00:07:29;94135.50;;;8.10;84.33
6389;BME280;3227;42.654;23.360;2024-02-14T00:09:56;94139.78;;;8.14;83.48
6389;BME280;3227;42.654;23.360;2024-02-14T00:12:24;94121.84;;;7.90;83.67
6389;BME280;3227;42.654;23.360;2024-02-14T00:14:51;94138.00;;;7.95;83.63
6389;BME280;3227;42.654;23.360;2024-02-14T00:17:18;94156.75;;;8.11;83.74
6389;BME280;3227;42.654;23.360;2024-02-14T00:19:44;94147.41;;;8.16;82.82
6389;BME280;3227;42.654;23.360;2024-02-14T00:22:11;94144.03;;;8.14;83.15
6389;BME280;3227;42.654;23.360;2024-02-14T00:24:38;94152.50;;;8.08;83.02
6389;BME280;3227;42.654;23.360;2024-02-14T00:27:04;94145.72;;;8.13;83.09
6389;BME280;3227;42.654;23.360;2024-02-14T00:29:33;94149.16;;;8.21;83.14
6389;BME280;3227;42.654;23.360;2024-02-14T00:32:00;94148.28;;;8.19;82.14
6389;BME280;3227;42.654;23.360;2024-02-14T00:34:27;94145.72;;;8.16;83.04
6389;BME280;3227;42.654;23.360;2024-02-14T00:36:53;94149.91;;;8.00;82.69
6389;BME280;3227;42.654;23.360;2024-02-14T00:39:20;94107.25;;;7.57;83.78
6389;BME280;3227;42.654;23.360;2024-02-14T00:41:47;94150.69;;;7.80;84.20
6389;BME280;3227;42.654;23.360;2024-02-14T00:44:14;94152.41;;;7.84;84.63
6389;BME280;3227;42.654;23.360;2024-02-14T00:46:43;94134.56;;;7.82;84.59
6389;BME280;3227;42.654;23.360;2024-02-14T00:49:10;94157.56;;;7.90;84.50
6389;BME280;3227;42.654;23.360;2024-02-14T00:51:38;94156.69;;;7.92;83.97
6389;BME280;3227;42.654;23.360;2024-02-14T00:54:05;94152.50;;;8.05;83.88
6389;BME280;3227;42.654;23.360;2024-02-14T00:56:32;94149.06;;;8.01;82.77
6389;BME280;3227;42.654;23.360;2024-02-14T00:58:59;94156.75;;;8.03;84.05
6389;BME280;3227;42.654;23.360;2024-02-14T01:01:26;94160.97;;;7.95;83.49
6389;BME280;3227;42.654;23.360;2024-02-14T01:03:59;94164.41;;;7.98;84.35
6389;BME280;3227;42.654;23.360;2024-02-14T01:06:26;94166.09;;;8.02;84.01
6389;BME280;3227;42.654;23.360;2024-02-14T01:08:53;94155.91;;;8.06;83.60
6389;BME280;3227;42.654;23.360;2024-02-14T01:11:19;94168.63;;;7.96;84.17
6389;BME280;3227;42.654;23.360;2024-02-14T01:14:01;94151.63;;;7.98;83.91
6389;BME280;3227;42.654;23.360;2024-02-14T01:16:28;94163.53;;;8.02;83.06
6389;BME280;3227;42.654;23.360;2024-02-14T01:18:54;94159.25;;;7.88;84.36
6389;BME280;3227;42.654;23.360;2024-02-14T01:21:23;94154.97;;;7.87;84.20
6389;BME280;3227;42.654;23.360;2024-02-14T01:23:50;94156.69;;;7.91;83.24
6389;BME280;3227;42.654;23.360;2024-02-14T01:26:17;94150.72;;;7.86;83.54
6389;BME280;3227;42.654;23.360;2024-02-14T01:28:46;94156.66;;;7.83;83.77
6389;BME280;3227;42.654;23.360;2024-02-14T01:31:12;94157.53;;;7.93;83.64
6389;BME280;3227;42.654;23.360;2024-02-14T01:33:44;94160.16;;;8.07;83.75
6389;BME280;3227;42.654;23.360;2024-02-14T01:36:11;94141.41;;;8.01;82.93
6389;BME280;3227;42.654;23.360;2024-02-14T01:38:39;94156.78;;;8.14;82.50
6389;BME280;3227;42.654;23.360;2024-02-14T01:41:06;94155.94;;;8.13;81.73
6389;BME280;3227;42.654;23.360;2024-02-14T01:43:32;94161.00;;;8.04;82.55
6389;BME280;3227;42.654;23.360;2024-02-14T01:46:06;94159.28;;;8.00;82.43
6389;BME280;3227;42.654;23.360;2024-02-14T01:48:33;94086.91;;;7.71;82.48
6389;BME280;3227;42.654;23.360;2024-02-14T01:51:01;94156.75;;;8.08;81.69
6389;BME280;3227;42.654;23.360;2024-02-14T01:53:29;94117.53;;;7.78;81.69
6389;BME280;3227;42.654;23.360;2024-02-14T01:55:58;94145.63;;;7.92;82.22
6389;BME280;3227;42.654;23.360;2024-02-14T01:58:26;94157.53;;;7.93;82.23
6389;BME280;3227;42.654;23.360;2024-02-14T02:00:53;94126.03;;;7.73;82.73
6389;BME280;3227;42.654;23.360;2024-02-14T02:03:22;94167.78;;;8.00;81.79
6389;BME280;3227;42.654;23.360;2024-02-14T02:05:49;94157.56;;;7.94;82.06
6389;BME280;3227;42.654;23.360;2024-02-14T02:08:16;94152.47;;;7.94;81.95
6389;BME280;3227;42.654;23.360;2024-02-14T02:10:43;94156.72;;;8.00;82.38
6389;BME280;3227;42.654;23.360;2024-02-14T02:13:11;94143.03;;;7.78;81.52
6389;BME280;3227;42.654;23.360;2024-02-14T02:15:38;94175.44;;;7.97;82.51
6389;BME280;3227;42.654;23.360;2024-02-14T02:18:05;94151.59;;;7.88;81.69
6389;BME280;3227;42.654;23.360;2024-02-14T02:20:33;94149.88;;;7.88;82.03
6389;BME280;3227;42.654;23.360;2024-02-14T02:23:01;94173.69;;;7.86;81.70
6389;BME280;3227;42.654;23.360;2024-02-14T02:25:28;94125.97;;;7.67;82.04
6389;BME280;3227;42.654;23.360;2024-02-14T02:27:54;94170.28;;;7.82;81.99
6389;BME280;3227;42.654;23.360;2024-02-14T02:30:23;94159.16;;;7.71;82.59
6389;BME280;3227;42.654;23.360;2024-02-14T02:32:50;94171.97;;;7.85;81.84
6389;BME280;3227;42.654;23.360;2024-02-14T02:35:16;94131.94;;;7.66;81.34
6389;BME280;3227;42.654;23.360;2024-02-14T02:37:45;94173.72;;;7.95;81.15
6389;BME280;3227;42.654;23.360;2024-02-14T02:40:14;94170.28;;;7.91;81.31
6389;BME280;3227;42.654;23.360;2024-02-14T02:42:42;94177.13;;;8.00;81.45
6389;BME280;3227;42.654;23.360;2024-02-14T02:45:10;94162.66;;;7.96;80.74
6389;BME280;3227;42.654;23.360;2024-02-14T02:47:37;94174.53;;;7.88;80.74
6389;BME280;3227;42.654;23.360;2024-02-14T02:50:05;94183.88;;;7.87;81.79
6389;BME280;3227;42.654;23.360;2024-02-14T02:52:33;94183.06;;;7.90;81.12
6389;BME280;3227;42.654;23.360;2024-02-14T02:55:00;94193.25;;;7.87;80.96
6389;BME280;3227;42.654;23.360;2024-02-14T02:57:28;94189.84;;;7.86;81.59
6389;BME280;3227;42.654;23.360;2024-02-14T02:59:57;94194.94;;;7.88;81.46
6389;BME280;3227;42.654;23.360;2024-02-14T03:02:24;94205.16;;;7.91;80.73
6389;BME280;3227;42.654;23.360;2024-02-14T03:04:51;94199.22;;;7.93;80.66
6389;BME280;3227;42.654;23.360;2024-02-14T03:07:18;94188.06;;;7.75;80.30
6389;BME280;3227;42.654;23.360;2024-02-14T03:09:45;94204.22;;;7.77;80.59
6389;BME280;3227;42.654;23.360;2024-02-14T03:12:12;94208.56;;;7.90;80.35
6389;BME280;3227;42.654;23.360;2024-02-14T03:14:42;94211.94;;;7.87;80.67
6389;BME280;3227;42.654;23.360;2024-02-14T03:17:09;94212.78;;;7.82;80.71
6389;BME280;3227;42.654;23.360;2024-02-14T03:19:36;94217.00;;;7.78;80.10
6389;BME280;3227;42.654;23.360;2024-02-14T03:22:07;94214.44;;;7.74;80.93
6389;BME280;3227;42.654;23.360;2024-02-14T03:24:34;94222.91;;;7.74;80.64
6389;BME280;3227;42.654;23.360;2024-02-14T03:27:03;94228.97;;;7.88;80.04
6389;BME280;3227;42.654;23.360;2024-02-14T03:29:31;94228.97;;;7.93;79.79
6389;BME280;3227;42.654;23.360;2024-02-14T03:31:59;94240.91;;;8.00;79.59
6389;BME280;3227;42.654;23.360;2024-02-14T03:34:30;94228.09;;;7.91;79.78
6389;BME280;3227;42.654;23.360;2024-02-14T03:36:59;94207.66;;;7.79;79.51
6389;BME280;3227;42.654;23.360;2024-02-14T03:39:26;94246.88;;;7.97;79.10
6389;BME280;3227;42.654;23.360;2024-02-14T03:41:53;94250.25;;;7.99;78.89
6389;BME280;3227;42.654;23.360;2024-02-14T03:44:21;94245.16;;;7.99;79.25
6389;BME280;3227;42.654;23.360;2024-02-14T03:46:48;94247.72;;;8.01;78.41
6389;BME280;3227;42.654;23.360;2024-02-14T03:49:16;94246.84;;;7.99;78.64
6389;BME280;3227;42.654;23.360;2024-02-14T03:51:43;94252.00;;;8.08;78.60
6389;BME280;3227;42.654;23.360;2024-02-14T03:54:10;94256.28;;;8.06;77.68
6389;BME280;3227;42.654;23.360;2024-02-14T03:56:37;94222.91;;;7.70;78.48
6389;BME280;3227;42.654;23.360;2024-02-14T03:59:04;94262.13;;;7.91;78.29
6389;BME280;3227;42.654;23.360;2024-02-14T04:01:33;94253.66;;;7.97;77.85
6389;BME280;3227;42.654;23.360;2024-02-14T04:04:00;94251.91;;;7.85;77.24
6389;BME280;3227;42.654;23.360;2024-02-14T04:06:28;94261.22;;;7.83;78.56
6389;BME280;3227;42.654;23.360;2024-02-14T04:08:57;94261.25;;;7.82;78.29
6389;BME280;3227;42.654;23.360;2024-02-14T04:11:24;94262.06;;;7.79;78.20
6389;BME280;3227;42.654;23.360;2024-02-14T04:13:51;94268.81;;;7.71;78.69
6389;BME280;3227;42.654;23.360;2024-02-14T04:16:19;94267.13;;;7.75;79.18
6389;BME280;3227;42.654;23.360;2024-02-14T04:18:46;94272.28;;;7.85;80.30
6389;BME280;3227;42.654;23.360;2024-02-14T04:21:13;94275.69;;;7.81;79.36
6389;BME280;3227;42.654;23.360;2024-02-14T04:23:41;94170.69;;;7.07;78.96
6389;BME280;3227;42.654;23.360;2024-02-14T04:26:08;94281.63;;;7.79;78.91
6389;BME280;3227;42.654;23.360;2024-02-14T04:28:35;94271.34;;;7.70;78.44
6389;BME280;3227;42.654;23.360;2024-02-14T04:31:01;94206.44;;;7.25;77.91
6389;BME280;3227;42.654;23.360;2024-02-14T04:33:28;94290.88;;;7.63;78.58
6389;BME280;3227;42.654;23.360;2024-02-14T04:35:56;94285.78;;;7.64;78.53
6389;BME280;3227;42.654;23.360;2024-02-14T04:38:22;94288.41;;;7.74;79.55
6389;BME280;3227;42.654;23.360;2024-02-14T04:40:50;94256.06;;;7.71;78.66
6389;BME280;3227;42.654;23.360;2024-02-14T04:43:17;94294.41;;;7.85;77.64
6389;BME280;3227;42.654;23.360;2024-02-14T04:45:44;94199.59;;;7.18;77.90
6389;BME280;3227;42.654;23.360;2024-02-14T04:48:12;94225.16;;;7.27;78.82
6389;BME280;3227;42.654;23.360;2024-02-14T04:50:38;94293.47;;;7.72;79.58
6389;BME280;3227;42.654;23.360;2024-02-14T04:53:05;94307.91;;;7.70;79.43
6389;BME280;3227;42.654;23.360;2024-02-14T04:55:32;94307.03;;;7.68;79.62
6389;BME280;3227;42.654;23.360;2024-02-14T04:58:00;94302.03;;;7.83;79.63
6389;BME280;3227;42.654;23.360;2024-02-14T05:00:27;94318.28;;;7.99;78.60
6389;BME280;3227;42.654;23.360;2024-02-14T05:02:54;94314.00;;;7.92;78.35
6389;BME280;3227;42.654;23.360;2024-02-14T05:05:21;94310.53;;;7.84;78.64
6389;BME280;3227;42.654;23.360;2024-02-14T05:07:47;94283.22;;;7.68;78.20
6389;BME280;3227;42.654;23.360;2024-02-14T05:10:14;94329.19;;;7.77;78.79
6389;BME280;3227;42.654;23.360;2024-02-14T05:12:41;94329.16;;;7.71;79.49
6389;BME280;3227;42.654;23.360;2024-02-14T05:15:10;94339.38;;;7.72;80.11
6389;BME280;3227;42.654;23.360;2024-02-14T05:17:38;94321.50;;;7.71;79.93
6389;BME280;3227;42.654;23.360;2024-02-14T05:20:05;94335.19;;;7.80;79.62
6389;BME280;3227;42.654;23.360;2024-02-14T05:22:35;94337.69;;;7.73;79.89
6389;BME280;3227;42.654;23.360;2024-02-14T05:25:02;94345.38;;;7.79;79.57
6389;BME280;3227;42.654;23.360;2024-02-14T05:27:29;94358.13;;;7.79;79.26
6389;BME280;3227;42.654;23.360;2024-02-14T05:29:56;94358.94;;;7.75;79.23
6389;BME280;3227;42.654;23.360;2024-02-14T05:32:24;94353.00;;;7.76;79.32
6389;BME280;3227;42.654;23.360;2024-02-14T05:34:51;94357.25;;;7.72;78.90
6389;BME280;3227;42.654;23.360;2024-02-14T05:37:17;94366.53;;;7.66;79.59
6389;BME280;3227;42.654;23.360;2024-02-14T05:39:44;94366.63;;;7.78;79.59
6389;BME280;3227;42.654;23.360;2024-02-14T05:42:11;94375.03;;;7.68;79.17
6389;BME280;3227;42.654;23.360;2024-02-14T05:44:38;94380.94;;;7.60;79.33
6389;BME280;3227;42.654;23.360;2024-02-14T05:47:05;94370.66;;;7.53;79.24
6389;BME280;3227;42.654;23.360;2024-02-14T05:49:33;94373.31;;;7.67;79.08
6389;BME280;3227;42.654;23.360;2024-02-14T05:52:00;94385.38;;;7.86;78.24
6389;BME280;3227;42.654;23.360;2024-02-14T05:54:27;94390.41;;;7.75;78.27
6389;BME280;3227;42.654;23.360;2024-02-14T05:57:04;94398.88;;;7.71;77.85
6389;BME280;3227;42.654;23.360;2024-02-14T05:59:32;94389.53;;;7.72;78.77
6389;BME280;3227;42.654;23.360;2024-02-14T06:01:58;94398.09;;;7.78;77.91
6389;BME280;3227;42.654;23.360;2024-02-14T06:04:28;94411.72;;;7.85;78.27
6389;BME280;3227;42.654;23.360;2024-02-14T06:06:56;94407.44;;;7.78;77.13
6389;BME280;3227;42.654;23.360;2024-02-14T06:09:23;94419.09;;;7.51;77.73
6389;BME280;3227;42.654;23.360;2024-02-14T06:11:50;94419.06;;;7.47;78.37
6389;BME280;3227;42.654;23.360;2024-02-14T06:14:16;94423.34;;;7.52;78.09
6389;BME280;3227;42.654;23.360;2024-02-14T06:16:44;94424.25;;;7.59;78.24
6389;BME280;3227;42.654;23.360;2024-02-14T06:19:10;94431.91;;;7.59;77.37
6389;BME280;3227;42.654;23.360;2024-02-14T06:21:37;94428.50;;;7.57;77.78
6389;BME280;3227;42.654;23.360;2024-02-14T06:24:06;94425.00;;;7.50;77.00
6389;BME280;3227;42.654;23.360;2024-02-14T06:26:32;94426.72;;;7.48;77.29
6389;BME280;3227;42.654;23.360;2024-02-14T06:28:59;94431.81;;;7.48;77.91
6389;BME280;3227;42.654;23.360;2024-02-14T06:31:26;94447.88;;;7.41;76.79
6389;BME280;3227;42.654;23.360;2024-02-14T06:33:52;94440.28;;;7.46;77.50
6389;BME280;3227;42.654;23.360;2024-02-14T06:36:19;94433.44;;;7.42;77.46
6389;BME280;3227;42.654;23.360;2024-02-14T06:38:46;94446.28;;;7.52;76.23
6389;BME280;3227;42.654;23.360;2024-02-14T06:41:14;94447.94;;;7.47;77.22
6389;BME280;3227;42.654;23.360;2024-02-14T06:43:41;94435.28;;;7.55;76.49
6389;BME280;3227;42.654;23.360;2024-02-14T06:46:07;94446.34;;;7.57;76.35
6389;BME280;3227;42.654;23.360;2024-02-14T06:48:34;94456.53;;;7.58;76.57
6389;BME280;3227;42.654;23.360;2024-02-14T06:51:01;94461.72;;;7.66;75.99
6389;BME280;3227;42.654;23.360;2024-02-14T06:53:27;94457.41;;;7.59;75.16
6389;BME280;3227;42.654;23.360;2024-02-14T06:55:56;94466.72;;;7.55;75.84
6389;BME280;3227;42.654;23.360;2024-02-14T06:58:24;94464.22;;;7.60;75.96
6389;BME280;3227;42.654;23.360;2024-02-14T07:00:50;94465.94;;;7.61;75.33
6389;BME280;3227;42.654;23.360;2024-02-14T07:03:17;94472.84;;;7.73;75.10
6389;BME280;3227;42.654;23.360;2024-02-14T07:05:44;94450.66;;;7.64;74.73
6389;BME280;3227;42.654;23.360;2024-02-14T07:08:11;94453.91;;;7.51;74.97
6389;BME280;3227;42.654;23.360;2024-02-14T07:10:38;94479.59;;;7.68;74.17
6389;BME280;3227;42.654;23.360;2024-02-14T07:13:04;94485.44;;;7.59;74.04
6389;BME280;3227;42.654;23.360;2024-02-14T07:15:32;94493.13;;;7.62;74.43
6389;BME280;3227;42.654;23.360;2024-02-14T07:17:59;94479.56;;;7.64;74.61
6389;BME280;3227;42.654;23.360;2024-02-14T07:20:26;94501.00;;;7.85;73.46
6389;BME280;3227;42.654;23.360;2024-02-14T07:22:52;94484.56;;;7.54;73.14
6389;BME280;3227;42.654;23.360;2024-02-14T07:25:21;94489.81;;;7.69;74.20
6389;BME280;3227;42.654;23.360;2024-02-14T07:27:48;94494.16;;;7.78;73.12
6389;BME280;3227;42.654;23.360;2024-02-14T07:30:15;94493.25;;;7.76;73.02
6389;BME280;3227;42.654;23.360;2024-02-14T07:32:43;94495.03;;;7.83;73.49
6389;BME280;3227;42.654;23.360;2024-02-14T07:35:10;94332.59;;;6.82;71.41
6389;BME280;3227;42.654;23.360;2024-02-14T07:37:38;94483.03;;;7.74;73.23
6389;BME280;3227;42.654;23.360;2024-02-14T07:40:06;94469.53;;;7.80;72.28
6389;BME280;3227;42.654;23.360;2024-02-14T07:42:33;94500.25;;;7.93;71.72
6389;BME280;3227;42.654;23.360;2024-02-14T07:45:00;94063.53;;;5.13;71.80
6389;BME280;3227;42.654;23.360;2024-02-14T07:47:29;94497.72;;;7.95;72.66
6389;BME280;3227;42.654;23.360;2024-02-14T07:49:57;94502.88;;;8.02;71.76
6389;BME280;3227;42.654;23.360;2024-02-14T07:52:23;94507.84;;;7.87;71.94
6389;BME280;3227;42.654;23.360;2024-02-14T07:54:51;94504.34;;;7.78;71.71
6389;BME280;3227;42.654;23.360;2024-02-14T07:57:19;94514.66;;;7.87;72.88
6389;BME280;3227;42.654;23.360;2024-02-14T07:59:45;94471.16;;;7.76;71.02
6389;BME280;3227;42.654;23.360;2024-02-14T08:02:12;94514.50;;;7.75;72.02
6389;BME280;3227;42.654;23.360;2024-02-14T08:04:39;94514.50;;;7.73;73.09
6389;BME280;3227;42.654;23.360;2024-02-14T08:07:07;94514.44;;;7.69;72.45
6389;BME280;3227;42.654;23.360;2024-02-14T08:09:33;94518.44;;;7.44;73.26
6389;BME280;3227;42.654;23.360;2024-02-14T08:12:00;94513.53;;;7.62;73.97
6389;BME280;3227;42.654;23.360;2024-02-14T08:14:27;94519.53;;;7.66;73.86
6389;BME280;3227;42.654;23.360;2024-02-14T08:16:53;94526.53;;;7.86;76.47
6389;BME280;3227;42.654;23.360;2024-02-14T08:19:20;94524.94;;;7.99;74.18
6389;BME280;3227;42.654;23.360;2024-02-14T08:21:47;94510.28;;;7.74;72.97
6389;BME280;3227;42.654;23.360;2024-02-14T08:24:15;94530.63;;;7.71;73.37
6389;BME280;3227;42.654;23.360;2024-02-14T08:26:42;94536.44;;;7.57;73.04
6389;BME280;3227;42.654;23.360;2024-02-14T08:29:09;94515.84;;;7.39;74.00
6389;BME280;3227;42.654;23.360;2024-02-14T08:31:37;94535.59;;;7.57;75.52
6389;BME280;3227;42.654;23.360;2024-02-14T08:34:03;94535.72;;;7.71;73.41
6389;BME280;3227;42.654;23.360;2024-02-14T08:36:30;94539.91;;;7.62;72.84
6389;BME280;3227;42.654;23.360;2024-02-14T08:38:57;94554.47;;;7.74;74.76
6389;BME280;3227;42.654;23.360;2024-02-14T08:41:25;94544.53;;;8.01;72.98
6389;BME280;3227;42.654;23.360;2024-02-14T08:43:51;94550.59;;;8.11;72.39
6389;BME280;3227;42.654;23.360;2024-02-14T08:46:18;94549.84;;;8.24;71.79
6389;BME280;3227;42.654;23.360;2024-02-14T08:48:45;94553.38;;;8.31;71.47
6389;BME280;3227;42.654;23.360;2024-02-14T08:51:12;94554.06;;;8.19;69.69
6389;BME280;3227;42.654;23.360;2024-02-14T08:53:39;94559.75;;;7.89;70.08
6389;BME280;3227;42.654;23.360;2024-02-14T08:56:08;94557.88;;;7.73;70.55
6389;BME280;3227;42.654;23.360;2024-02-14T08:58:40;94538.84;;;7.45;71.64
6389;BME280;3227;42.654;23.360;2024-02-14T09:01:07;94574.94;;;7.79;71.98
6389;BME280;3227;42.654;23.360;2024-02-14T09:03:34;94564.06;;;7.96;71.62
6389;BME280;3227;42.654;23.360;2024-02-14T09:06:01;94566.56;;;7.90;71.47
6389;BME280;3227;42.654;23.360;2024-02-14T09:08:28;94573.44;;;8.00;70.71
6389;BME280;3227;42.654;23.360;2024-02-14T09:10:59;94569.25;;;8.07;70.36
6389;BME280;3227;42.654;23.360;2024-02-14T09:13:26;94541.06;;;7.90;70.41
6389;BME280;3227;42.654;23.360;2024-02-14T09:15:55;94559.09;;;8.10;70.63
6389;BME280;3227;42.654;23.360;2024-02-14T09:18:22;94566.72;;;8.07;70.40
6389;BME280;3227;42.654;23.360;2024-02-14T09:20:50;94571.91;;;8.13;70.22
6389;BME280;3227;42.654;23.360;2024-02-14T09:23:18;94581.94;;;7.98;70.14
6389;BME280;3227;42.654;23.360;2024-02-14T09:25:45;94582.47;;;7.70;71.16
6389;BME280;3227;42.654;23.360;2024-02-14T09:28:13;94574.78;;;7.67;72.17
6389;BME280;3227;42.654;23.360;2024-02-14T09:30:40;94579.13;;;7.75;73.00
6389;BME280;3227;42.654;23.360;2024-02-14T09:33:08;94584.34;;;7.86;72.49
6389;BME280;3227;42.654;23.360;2024-02-14T09:35:35;94596.34;;;7.93;72.34
6389;BME280;3227;42.654;23.360;2024-02-14T09:38:03;94592.88;;;7.88;72.25
6389;BME280;3227;42.654;23.360;2024-02-14T09:40:30;94587.84;;;7.94;72.31
6389;BME280;3227;42.654;23.360;2024-02-14T09:42:59;94586.03;;;7.82;71.66
6389;BME280;3227;42.654;23.360;2024-02-14T09:45:30;94585.00;;;7.68;73.05
6389;BME280;3227;42.654;23.360;2024-02-14T09:47:58;94580.59;;;7.53;72.05
6389;BME280;3227;42.654;23.360;2024-02-14T09:50:29;94579.69;;;7.51;72.89
6389;BME280;3227;42.654;23.360;2024-02-14T09:52:58;94581.59;;;7.68;72.43
6389;BME280;3227;42.654;23.360;2024-02-14T09:55:25;94492.41;;;7.01;71.63
6389;BME280;3227;42.654;23.360;2024-02-14T09:57:52;94569.63;;;7.60;71.87
6389;BME280;3227;42.654;23.360;2024-02-14T10:00:21;94561.84;;;7.51;71.68
6389;BME280;3227;42.654;23.360;2024-02-14T10:02:49;94571.00;;;7.36;72.97
6389;BME280;3227;42.654;23.360;2024-02-14T10:05:16;94574.56;;;7.50;71.62
6389;BME280;3227;42.654;23.360;2024-02-14T10:07:44;94503.63;;;7.14;72.05
6389;BME280;3227;42.654;23.360;2024-02-14T10:10:12;94497.41;;;6.94;71.75
6389;BME280;3227;42.654;23.360;2024-02-14T10:12:39;94560.75;;;7.30;72.48
6389;BME280;3227;42.654;23.360;2024-02-14T10:15:07;94580.38;;;7.37;72.08
6389;BME280;3227;42.654;23.360;2024-02-14T10:17:34;94569.97;;;7.21;72.69
6389;BME280;3227;42.654;23.360;2024-02-14T10:20:04;94571.78;;;7.30;72.77
6389;BME280;3227;42.654;23.360;2024-02-14T10:22:34;94582.03;;;7.32;72.40
6389;BME280;3227;42.654;23.360;2024-02-14T10:25:04;94544.31;;;7.09;72.49
6389;BME280;3227;42.654;23.360;2024-02-14T10:27:35;94573.47;;;7.28;72.46
6389;BME280;3227;42.654;23.360;2024-02-14T10:30:04;94580.31;;;7.31;72.51
6389;BME280;3227;42.654;23.360;2024-02-14T10:32:33;94577.88;;;7.40;72.52
6389;BME280;3227;42.654;23.360;2024-02-14T10:35:00;94560.69;;;7.26;72.10
6389;BME280;3227;42.654;23.360;2024-02-14T10:37:29;94582.34;;;7.57;71.82
6389;BME280;3227;42.654;23.360;2024-02-14T10:39:56;94487.28;;;6.97;71.67
6389;BME280;3227;42.654;23.360;2024-02-14T10:42:28;94575.66;;;7.66;71.65
6389;BME280;3227;42.654;23.360;2024-02-14T10:44:55;94500.44;;;7.30;71.52
6389;BME280;3227;42.654;23.360;2024-02-14T10:47:24;94391.84;;;6.69;70.98
6389;BME280;3227;42.654;23.360;2024-02-14T10:49:51;94564.69;;;7.76;70.34
6389;BME280;3227;42.654;23.360;2024-02-14T10:52:20;94574.06;;;7.78;70.24
6389;BME280;3227;42.654;23.360;2024-02-14T10:54:52;94572.47;;;7.86;70.31
6389;BME280;3227;42.654;23.360;2024-02-14T10:57:24;94570.88;;;7.97;69.20
6389;BME280;3227;42.654;23.360;2024-02-14T10:59:53;94582.84;;;8.03;69.30
6389;BME280;3227;42.654;23.360;2024-02-14T11:02:20;94536.63;;;7.76;68.31
6389;BME280;3227;42.654;23.360;2024-02-14T11:04:49;94587.00;;;7.95;68.11
6389;BME280;3227;42.654;23.360;2024-02-14T11:07:20;94581.91;;;7.95;68.37
6389;BME280;3227;42.654;23.360;2024-02-14T11:09:48;94579.41;;;7.98;68.15
6389;BME280;3227;42.654;23.360;2024-02-14T11:12:15;94565.47;;;7.70;68.29
6389;BME280;3227;42.654;23.360;2024-02-14T11:14:42;94585.19;;;7.85;67.36
6389;BME280;3227;42.654;23.360;2024-02-14T11:17:12;94477.44;;;7.27;67.89
6389;BME280;3227;42.654;23.360;2024-02-14T11:19:39;94579.31;;;7.89;68.33
6389;BME280;3227;42.654;23.360;2024-02-14T11:22:12;94573.31;;;7.87;68.00
6389;BME280;3227;42.654;23.360;2024-02-14T11:24:39;94567.41;;;7.89;68.59
6389;BME280;3227;42.654;23.360;2024-02-14T11:27:10;94577.78;;;8.09;67.89
6389;BME280;3227;42.654;23.360;2024-02-14T11:29:39;94555.38;;;7.79;68.21
6389;BME280;3227;42.654;23.360;2024-02-14T11:32:06;94483.63;;;7.47;67.92
6389;BME280;3227;42.654;23.360;2024-02-14T11:34:36;94576.91;;;8.04;67.13
6389;BME280;3227;42.654;23.360;2024-02-14T11:37:03;94582.06;;;8.12;67.47
6389;BME280;3227;42.654;23.360;2024-02-14T11:39:32;94586.28;;;8.05;66.78
6389;BME280;3227;42.654;23.360;2024-02-14T11:42:00;94585.44;;;8.06;67.15
6389;BME280;3227;42.654;23.360;2024-02-14T11:44:26;94578.69;;;8.13;67.44
6389;BME280;3227;42.654;23.360;2024-02-14T11:46:53;94572.69;;;8.09;67.34
6389;BME280;3227;42.654;23.360;2024-02-14T11:49:21;94564.94;;;8.00;66.82
6389;BME280;3227;42.654;23.360;2024-02-14T11:51:49;94583.72;;;8.08;67.21
6389;BME280;3227;42.654;23.360;2024-02-14T11:54:16;94585.44;;;8.06;66.99
6389;BME280;3227;42.654;23.360;2024-02-14T11:56:46;94576.91;;;8.07;66.74
6389;BME280;3227;42.654;23.360;2024-02-14T11:59:13;94585.44;;;8.08;67.52
6389;BME280;3227;42.654;23.360;2024-02-14T12:01:40;94567.66;;;8.15;67.18
6389;BME280;3227;42.654;23.360;2024-02-14T12:04:09;94510.28;;;7.77;67.19
6389;BME280;3227;42.654;23.360;2024-02-14T12:06:38;94572.84;;;8.23;66.70
6389;BME280;3227;42.654;23.360;2024-02-14T12:09:08;94564.44;;;8.31;66.42
6389;BME280;3227;42.654;23.360;2024-02-14T12:11:36;94579.50;;;8.10;65.73
6389;BME280;3227;42.654;23.360;2024-02-14T12:14:05;94566.78;;;8.13;66.58
6389;BME280;3227;42.654;23.360;2024-02-14T12:16:33;94532.56;;;7.93;66.46
6389;BME280;3227;42.654;23.360;2024-02-14T12:19:05;94482.97;;;7.67;66.42
6389;BME280;3227;42.654;23.360;2024-02-14T12:21:35;94545.53;;;8.14;65.67
6389;BME280;3227;42.654;23.360;2024-02-14T12:24:03;94560.44;;;7.76;67.63
6389;BME280;3227;42.654;23.360;2024-02-14T12:26:31;94524.72;;;7.76;68.85
6389;BME280;3227;42.654;23.360;2024-02-14T12:29:01;94559.22;;;8.22;67.87
6389;BME280;3227;42.654;23.360;2024-02-14T12:31:27;94562.75;;;8.33;67.58
6389;BME280;3227;42.654;23.360;2024-02-14T12:33:56;94560.97;;;8.29;66.33
6389;BME280;3227;42.654;23.360;2024-02-14T12:36:24;94560.16;;;8.32;67.17
6389;BME280;3227;42.654;23.360;2024-02-14T12:38:51;94556.78;;;8.34;67.29
6389;BME280;3227;42.654;23.360;2024-02-14T12:41:18;94556.84;;;8.42;66.31
6389;BME280;3227;42.654;23.360;2024-02-14T12:43:46;94555.16;;;8.43;65.87
6389;BME280;3227;42.654;23.360;2024-02-14T12:46:13;94557.72;;;8.44;66.42
6389;BME280;3227;42.654;23.360;2024-02-14T12:48:41;94561.16;;;8.46;66.23
6389;BME280;3227;42.654;23.360;2024-02-14T12:51:07;94563.00;;;8.67;66.16
6389;BME280;3227;42.654;23.360;2024-02-14T12:53:34;94558.81;;;8.70;64.96
6389;BME280;3227;42.654;23.360;2024-02-14T12:56:01;94560.59;;;8.81;64.70
6389;BME280;3227;42.654;23.360;2024-02-14T12:58:30;94558.81;;;8.73;64.35
6389;BME280;3227;42.654;23.360;2024-02-14T13:00:58;94571.66;;;8.84;64.81
6389;BME280;3227;42.654;23.360;2024-02-14T13:03:26;94565.69;;;8.81;64.54
6389;BME280;3227;42.654;23.360;2024-02-14T13:05:53;94571.63;;;8.78;63.64
6389;BME280;3227;42.654;23.360;2024-02-14T13:08:20;94576.66;;;8.69;64.08
6389;BME280;3227;42.654;23.360;2024-02-14T13:10:48;94580.13;;;8.77;64.38
6389;BME280;3227;42.654;23.360;2024-02-14T13:13:15;94580.13;;;8.77;64.06
6389;BME280;3227;42.654;23.360;2024-02-14T13:15:42;94571.63;;;8.78;63.83
6389;BME280;3227;42.654;23.360;2024-02-14T13:18:11;94577.59;;;8.83;64.21
6389;BME280;3227;42.654;23.360;2024-02-14T13:20:38;94572.56;;;8.89;64.67
6389;BME280;3227;42.654;23.360;2024-02-14T13:23:04;94548.72;;;8.92;66.07